Lewiston, ID

5:10 AM PDT on October 20, 2014 (GMT -0700)
Normal Hill Weather Station | Change Station
CLOSE
Current Station
Personal Weather Station
Location: Lewiston, ID
Elevation: 805 ft
Nearby Weather Stations

Elev 805 ft 46.42 °N, 117.03 °W | Updated 2 seconds ago

Clear
Clear
47.8 °F
Feels Like 48 °F
N
0.0
Wind Variable Wind from WSW
Gusts 0.0 mph

Today
High -- | Low -- °F
--% Chance of Precip.
Yesterday
High -- | Low -- °F
Precip. -- in
7:12 AM 5:52 PM
Waning Crescent, 11% visible
Pressure 29.74 in
Visibility 10.0 miles
Clouds Clear
Windchill 48 °F
Dew Point 32 °F
Humidity 55%
Rainfall 0.00 in
Snow Depth Not available.
UV 0 out of 12
Pollen 3.10 out of 12
Air Quality Not available.
Flu Activity Sporadic
METAR KLWS 201156Z AUTO 10005KT 10SM CLR 09/06 A2975 RMK AO2 SLP070 T00940056 10156 20094 50002 $

More Conditions Fewer Conditions

Pressure 29.74 in
Visibility 10.0 miles
Clouds Clear
Windchill 48 °F
Dew Point 32 °F
Humidity 55%
Rainfall 0.00 in
Snow Depth Not available.
UV 0 out of 12
Pollen 3.10 out of 12
Air Quality Not available.
Flu Activity Sporadic
METAR KLWS 201156Z AUTO 10005KT 10SM CLR 09/06 A2975 RMK AO2 SLP070 T00940056 10156 20094 50002 $

More Conditions Fewer Conditions

10-Day Weather Forecast

Almanac

Astronomy

Oct. 20, 2014 Rise Set
Actual Time 7:12 AM PDT 5:52 PM PDT
Civil Twilight 6:41 AM PDT 6:22 PM PDT
Nautical Twilight 6:06 AM PDT 6:57 PM PDT
Astronomical Twilight 5:31 AM PDT 7:32 PM PDT
Moon 3:54 AM PDT 4:26 PM PDT
Length of Visible Light 11h 41m
Length of Day
10h 39m
Waning Crescent, 11% of the Moon is Illuminated
Today
Waning Crescent
Oct 23
New
Oct 30
First Quarter
Nov 6
Full
Nov 14
Last Quarter

Today's Extremes

State Highs State Lows

Community

WunderPhotos

Upload Photos

1,763,349 photos uploaded!

Nearby

Snow Depth

Station Depth Elevation
Moscow Mountain 0 in 4700 ft
Sherwin 1 in 3200 ft
Shanghi Summit 0 in 4570 ft
Mica Creek 1 in 4750 ft
Hemlock Butte 0 in 5810 ft

Earthquake Activity

City Distance Mag. Time & Date
No recent earthquake activity has been reported nearby.
Minimum magnitude displayed is 2.5.

Coastal Water Temperatures

Place Temperature
No Stations Reporting

Nearby Weather Stations